This is the latest recevied weather packets stored in our database for station/object C31FR-13. If no packets are shown the sender has not sent any weather packets the latest 1 day(s).
| Time | Temp. | Humidity | Pressure | Rain* | Wind** | Luminosity | Snow |
|---|---|---|---|---|---|---|---|
| 1778092862 | 11.11° C | 84% | 1012.4 hPa | - | - | - | - |
| 1778090463 | 11.11° C | 87% | 1012.1 hPa | - | - | - | - |
| 1778090163 | 11.11° C | 89% | 1012.1 hPa | - | - | - | - |
| 1778088662 | 11.67° C | 88% | 1012 hPa | - | - | - | - |
| 1778084762 | 12.22° C | 76% | 1010.9 hPa | - | - | - | - |
| 1778082963 | 13.33° C | 67% | 1010.8 hPa | - | - | - | - |
| 1778080863 | 12.22° C | 82% | 1011.1 hPa | - | - | - | - |
| 1778078162 | 11.67° C | 83% | 1010.7 hPa | - | - | - | - |
| 1778077263 | 11.67° C | 76% | 1010.5 hPa | - | - | - | - |
| 1778076962 | 12.22° C | 77% | 1010.4 hPa | - | - | - | - |
| 1778076062 | 13.33° C | 50% | 1010.3 hPa | - | - | - | - |
| 1778075463 | 13.33° C | 47% | 1010.4 hPa | - | - | - | - |
| 1778074263 | 13.33° C | 47% | 1010.1 hPa | - | - | - | - |
| 1778073063 | 13.89° C | 45% | 1009.9 hPa | - | - | - | - |
| 1778071862 | 13.89° C | 48% | 1010 hPa | - | - | - | - |
| 1778070963 | 15° C | 45% | 1009.9 hPa | - | - | - | - |
| 1778070362 | 14.44° C | 45% | 1010 hPa | - | - | - | - |
| 1778069462 | 13.89° C | 46% | 1010 hPa | - | - | - | - |
| 1778066463 | 13.33° C | 47% | 1010.2 hPa | - | - | - | - |
| 1778065563 | 13.33° C | 47% | 1010.3 hPa | - | - | - | - |
| 1778064963 | 13.33° C | 47% | 1010.4 hPa | - | - | - | - |
| 1778064662 | 13.33° C | 47% | 1010.4 hPa | - | - | - | - |
| 1778064363 | 13.33° C | 47% | 1010.4 hPa | - | - | - | - |
| 1778063762 | 13.33° C | 46% | 1010.4 hPa | - | - | - | - |
| 1778062562 | 14.44° C | 47% | 1010.6 hPa | - | - | - | - |
* Rain since midnight (hover to see other rain measurements)
** Current wind speed in m/s (hover to see current wind gust speed)